Time;durP1;ratioP1;P1;durP2;ratioP2;P2;SDS_P1;SDS_P2;PMS_P1;PMS_P2;Temp;Humidity;BMP_temperature;BMP_pressure;BME280_temperature;BME280_humidity;BME280_pressure;Samples;Min_cycle;Max_cycle;Signal;HPM_P1;HPM_P2
2022/04/10 00:01:06;;;;;;;8.30;2.55;;;;;;;6.51;46.82;100516.00;5010584;28;20042;-73
2022/04/10 00:03:32;;;;;;;9.73;2.47;;;;;;;5.88;48.50;100518.94;5012407;28;20137;-73
2022/04/10 00:05:59;;;;;;;11.45;2.60;;;;;;;6.34;47.31;100508.69;5014453;28;20554;-73
2022/04/10 00:08:25;;;;;;;6.05;2.13;;;;;;;6.26;47.56;100505.91;5014547;28;20125;-73
2022/04/10 00:10:52;;;;;;;7.68;2.38;;;;;;;5.88;48.77;100515.44;5012756;28;20442;-73
2022/04/10 00:13:19;;;;;;;9.07;2.50;;;;;;;6.28;47.48;100506.56;5015235;28;20387;-72
2022/04/10 00:15:45;;;;;;;8.60;2.40;;;;;;;6.34;47.34;100509.53;5015040;28;20064;-73
2022/04/10 00:18:12;;;;;;;11.52;2.75;;;;;;;6.08;47.88;100508.31;5014484;28;20104;-72
2022/04/10 00:20:38;;;;;;;11.95;2.20;;;;;;;6.34;47.31;100514.88;5014851;28;20117;-73
2022/04/10 00:23:05;;;;;;;9.68;2.33;;;;;;;6.49;47.04;100523.28;5013241;28;20121;-73
2022/04/10 00:25:31;;;;;;;2.97;1.60;;;;;;;6.32;47.48;100522.16;5013654;28;20141;-72
2022/04/10 00:27:58;;;;;;;6.90;2.50;;;;;;;6.37;47.04;100525.25;5013450;28;20134;-73
2022/04/10 00:30:24;;;;;;;8.90;2.40;;;;;;;5.96;48.43;100528.91;5014269;28;20080;-73
2022/04/10 00:32:52;;;;;;;12.18;2.70;;;;;;;6.26;47.61;100525.38;5013155;28;20076;-72
2022/04/10 00:35:19;;;;;;;9.25;2.20;;;;;;;6.15;47.71;100531.63;5013669;28;20081;-73
2022/04/10 00:37:45;;;;;;;10.88;2.47;;;;;;;5.73;48.80;100522.91;5013807;28;20148;-73
2022/04/10 00:40:12;;;;;;;9.63;2.60;;;;;;;5.82;48.58;100529.28;5014539;28;20054;-72
2022/04/10 00:42:45;;;;;;;8.63;3.05;;;;;;;5.84;48.46;100532.66;5014439;28;20038;-73
2022/04/10 00:45:12;;;;;;;5.00;2.78;;;;;;;6.39;47.27;100530.44;5011861;28;20050;-73
2022/04/10 00:47:38;;;;;;;11.23;3.58;;;;;;;5.37;49.32;100534.94;5013478;28;20132;-73
2022/04/10 00:50:07;;;;;;;13.55;3.13;;;;;;;6.31;47.25;100528.47;5013969;28;20077;-73
2022/04/10 00:52:35;;;;;;;8.55;2.83;;;;;;;6.04;48.08;100529.06;5014122;28;20050;-73
2022/04/10 00:55:03;;;;;;;11.32;3.03;;;;;;;5.94;48.24;100533.50;5007359;28;20072;-73
2022/04/10 00:57:29;;;;;;;15.40;3.55;;;;;;;6.18;47.90;100533.16;5014035;28;20054;-73
2022/04/10 00:59:56;;;;;;;11.68;2.92;;;;;;;6.07;47.97;100534.09;5013035;28;20042;-73
2022/04/10 01:02:22;;;;;;;8.45;3.22;;;;;;;5.89;48.55;100527.75;5013272;28;20052;-73
2022/04/10 01:04:49;;;;;;;9.30;3.47;;;;;;;6.05;48.35;100532.59;5013484;28;20441;-73
2022/04/10 01:07:22;;;;;;;8.30;3.80;;;;;;;6.16;47.72;100527.97;5014148;28;20129;-73
2022/04/10 01:09:48;;;;;;;9.38;3.08;;;;;;;6.08;47.87;100529.63;5012830;28;20072;-73
2022/04/10 01:12:15;;;;;;;10.07;3.72;;;;;;;6.33;47.43;100533.66;5012597;28;20069;-73
2022/04/10 01:14:42;;;;;;;8.80;3.70;;;;;;;5.68;48.85;100530.47;5012504;28;20060;-73
2022/04/10 01:17:11;;;;;;;9.95;3.72;;;;;;;6.08;48.23;100534.94;5013122;28;20080;-73
2022/04/10 01:19:39;;;;;;;10.23;3.33;;;;;;;6.14;48.14;100529.94;5010101;28;20077;-73
2022/04/10 01:22:06;;;;;;;9.90;3.42;;;;;;;6.07;47.98;100533.28;5013374;28;20058;-73
2022/04/10 01:24:35;;;;;;;11.45;4.28;;;;;;;6.16;47.88;100530.66;5012308;28;20074;-73
2022/04/10 01:27:02;;;;;;;12.52;3.60;;;;;;;6.56;46.92;100535.09;5013105;28;20069;-73
2022/04/10 01:29:29;;;;;;;12.30;3.83;;;;;;;6.41;47.40;100528.47;5011484;28;20540;-72
2022/04/10 01:31:56;;;;;;;10.35;4.00;;;;;;;6.23;47.88;100544.25;5026320;28;20042;-73
2022/04/10 01:34:23;;;;;;;9.20;3.33;;;;;;;5.96;48.29;100539.56;5013281;28;20045;-72
2022/04/10 01:36:49;;;;;;;11.15;4.32;;;;;;;6.34;47.42;100533.50;5013194;28;20073;-71
2022/04/10 01:39:16;;;;;;;10.40;3.83;;;;;;;6.13;48.03;100546.06;5013032;28;20476;-72
2022/04/10 01:41:46;;;;;;;11.32;3.50;;;;;;;6.06;48.61;100537.75;5012222;28;20069;-73
2022/04/10 01:44:13;;;;;;;8.43;3.38;;;;;;;6.03;48.11;100539.84;5012878;28;20046;-73
2022/04/10 01:46:39;;;;;;;12.13;4.38;;;;;;;5.46;49.59;100539.47;5011625;28;20133;-73
2022/04/10 01:49:06;;;;;;;14.90;3.40;;;;;;;6.14;47.89;100548.56;5010339;28;20045;-73
2022/04/10 01:51:33;;;;;;;16.35;3.97;;;;;;;6.13;47.98;100540.72;5012519;28;20085;-73
2022/04/10 01:54:00;;;;;;;11.25;3.35;;;;;;;5.91;48.62;100539.97;5013640;28;20077;-73
2022/04/10 01:56:26;;;;;;;9.88;3.83;;;;;;;5.51;49.63;100537.25;5013146;28;20070;-73
2022/04/10 01:58:53;;;;;;;10.35;4.53;;;;;;;6.23;47.89;100539.78;5012355;28;20133;-73
2022/04/10 02:01:21;;;;;;;9.32;3.90;;;;;;;6.14;48.05;100539.75;5016941;28;20045;-73
2022/04/10 02:03:50;;;;;;;11.90;2.85;;;;;;;6.57;46.94;100536.78;5012885;28;20458;-73
2022/04/10 02:06:17;;;;;;;12.77;3.58;;;;;;;5.85;48.50;100537.84;5012023;28;20130;-72
2022/04/10 02:08:44;;;;;;;9.35;3.35;;;;;;;6.14;47.71;100540.56;5011777;28;20073;-73
2022/04/10 02:11:16;;;;;;;17.00;3.67;;;;;;;6.03;47.81;100540.69;5003693;28;20050;-71
2022/04/10 02:13:44;;;;;;;10.70;3.70;;;;;;;5.39;49.79;100543.63;5012559;28;20137;-71
2022/04/10 02:16:12;;;;;;;14.45;3.63;;;;;;;5.67;48.80;100532.28;5010821;28;20048;-72
2022/04/10 02:18:39;;;;;;;9.30;3.58;;;;;;;5.95;48.24;100541.38;5011583;28;20136;-72
2022/04/10 02:21:06;;;;;;;19.40;3.90;;;;;;;6.06;47.95;100542.25;5011879;28;20077;-72
2022/04/10 02:23:32;;;;;;;10.65;3.47;;;;;;;5.91;48.00;100539.97;5012259;28;20072;-72
2022/04/10 02:25:59;;;;;;;13.10;4.18;;;;;;;5.96;48.01;100531.56;5010852;28;20050;-72
2022/04/10 02:28:25;;;;;;;18.10;3.92;;;;;;;5.32;49.55;100542.44;5012167;28;20137;-72
2022/04/10 02:30:52;;;;;;;15.57;3.80;;;;;;;5.68;48.71;100539.28;5011125;28;20133;-72
2022/04/10 02:33:19;;;;;;;14.52;4.13;;;;;;;5.85;48.30;100545.81;5011491;28;20042;-72
2022/04/10 02:35:46;;;;;;;11.77;4.03;;;;;;;5.53;49.13;100543.28;5002866;28;20137;-72
2022/04/10 02:38:12;;;;;;;11.88;4.03;;;;;;;5.15;50.24;100535.91;5011166;28;20153;-71
2022/04/10 02:40:38;;;;;;;14.32;4.15;;;;;;;5.66;48.73;100540.41;5011970;28;20124;-71
2022/04/10 02:43:05;;;;;;;17.45;4.05;;;;;;;5.19;49.87;100540.84;5011449;28;20061;-72
2022/04/10 02:45:31;;;;;;;13.52;4.30;;;;;;;4.89;50.95;100546.91;5011558;28;20460;-72
2022/04/10 02:47:58;;;;;;;13.40;4.47;;;;;;;4.90;50.67;100545.09;5012143;28;20054;-71
2022/04/10 02:50:24;;;;;;;12.63;4.15;;;;;;;5.63;48.78;100549.50;5010932;28;20046;-72
2022/04/10 02:52:51;;;;;;;12.15;4.00;;;;;;;5.42;49.59;100553.97;5011720;28;21599;-71
2022/04/10 02:55:18;;;;;;;16.55;3.72;;;;;;;5.18;50.00;100547.13;5011060;28;20082;-72
2022/04/10 02:57:45;;;;;;;14.27;4.78;;;;;;;5.23;49.73;100544.09;5016638;28;20073;-72
2022/04/10 03:00:12;;;;;;;20.98;4.60;;;;;;;5.26;49.82;100549.97;5011126;28;20042;-72
2022/04/10 03:02:40;;;;;;;12.40;4.18;;;;;;;5.01;50.13;100548.56;5010955;28;20108;-72
2022/04/10 03:05:08;;;;;;;12.40;4.00;;;;;;;5.18;50.20;100552.47;5010841;28;20077;-72
2022/04/10 03:07:34;;;;;;;24.52;4.75;;;;;;;5.89;48.30;100546.38;5010305;28;20084;-72
2022/04/10 03:10:01;;;;;;;14.00;4.22;;;;;;;5.28;49.70;100556.03;5011955;28;20061;-72
2022/04/10 03:12:27;;;;;;;24.20;4.50;;;;;;;5.50;49.38;100552.38;5011102;28;20136;-72
2022/04/10 03:14:54;;;;;;;16.98;3.97;;;;;;;5.41;49.30;100554.97;5011508;28;20050;-72
2022/04/10 03:17:20;;;;;;;14.55;4.95;;;;;;;4.94;50.15;100557.19;5009624;28;20125;-72
2022/04/10 03:19:47;;;;;;;13.80;3.78;;;;;;;5.24;49.92;100554.56;5011277;28;20137;-71
2022/04/10 03:22:13;;;;;;;12.07;3.60;;;;;;;5.28;49.44;100553.38;5011374;28;20046;-71
2022/04/10 03:24:40;;;;;;;13.52;3.65;;;;;;;5.71;48.85;100559.50;5010273;28;20050;-73
2022/04/10 03:27:06;;;;;;;11.02;3.70;;;;;;;5.74;48.21;100567.22;5010853;28;20069;-72
2022/04/10 03:29:33;;;;;;;20.63;4.72;;;;;;;5.53;48.77;100567.25;5010540;28;20080;-73
2022/04/10 03:31:59;;;;;;;11.75;3.40;;;;;;;5.42;49.04;100573.47;5011185;28;20081;-72
2022/04/10 03:34:26;;;;;;;17.50;3.95;;;;;;;5.61;48.50;100569.25;5011395;28;20049;-72
2022/04/10 03:36:52;;;;;;;15.85;3.58;;;;;;;5.13;49.69;100575.91;5009949;28;20129;-73
2022/04/10 03:39:18;;;;;;;11.70;3.35;;;;;;;5.57;48.76;100578.47;5010802;28;20069;-73
2022/04/10 03:41:45;;;;;;;18.42;4.28;;;;;;;5.48;49.14;100585.41;5010950;28;20124;-73
2022/04/10 03:44:12;;;;;;;12.13;3.42;;;;;;;6.06;47.52;100584.88;5010781;28;20125;-72
2022/04/10 03:46:38;;;;;;;19.20;4.15;;;;;;;5.57;48.69;100586.44;5011332;28;20494;-72
2022/04/10 03:49:05;;;;;;;11.10;3.60;;;;;;;5.84;47.95;100589.41;5010724;28;20092;-72
2022/04/10 03:51:31;;;;;;;15.00;4.03;;;;;;;5.52;48.46;100587.69;5010680;28;20540;-72
2022/04/10 03:53:58;;;;;;;17.50;3.67;;;;;;;5.20;49.40;100597.53;5010391;28;20140;-72
2022/04/10 03:56:24;;;;;;;14.93;4.60;;;;;;;5.95;48.03;100599.94;5011212;28;20072;-73
2022/04/10 03:58:51;;;;;;;16.27;3.95;;;;;;;6.29;47.13;100599.69;5007018;28;20052;-72
2022/04/10 04:01:17;;;;;;;18.02;3.95;;;;;;;5.88;47.96;100590.81;5010783;28;20049;-71
2022/04/10 04:03:44;;;;;;;19.88;4.75;;;;;;;5.97;47.49;100600.66;5010919;28;20490;-72
2022/04/10 04:06:10;;;;;;;13.68;3.90;;;;;;;6.19;47.12;100606.78;5010304;28;20049;-72
2022/04/10 04:08:38;;;;;;;14.05;3.65;;;;;;;6.23;46.76;100603.72;5010361;28;20042;-72
2022/04/10 04:11:04;;;;;;;19.00;3.90;;;;;;;5.63;48.10;100604.53;5010189;28;20372;-73
2022/04/10 04:13:31;;;;;;;22.38;3.60;;;;;;;5.43;48.68;100598.25;5009655;28;20073;-71
2022/04/10 04:15:57;;;;;;;14.10;3.85;;;;;;;5.67;48.50;100616.63;5010506;28;20050;-72
2022/04/10 04:18:24;;;;;;;22.98;3.28;;;;;;;5.59;48.69;100613.75;5010398;28;20049;-73
2022/04/10 04:20:50;;;;;;;16.48;3.53;;;;;;;5.77;48.03;100622.84;5010876;28;20129;-72
2022/04/10 04:23:19;;;;;;;14.68;3.75;;;;;;;5.61;47.90;100628.63;5003122;28;20046;-72
2022/04/10 04:25:46;;;;;;;16.88;3.67;;;;;;;6.31;46.64;100624.38;5005957;28;20132;-72
2022/04/10 04:28:12;;;;;;;15.32;4.35;;;;;;;5.25;48.48;100629.91;5009085;28;20537;-72
2022/04/10 04:30:39;;;;;;;20.73;4.75;;;;;;;5.63;48.18;100633.81;5009996;28;20626;-72
2022/04/10 04:33:05;;;;;;;21.42;3.55;;;;;;;5.96;47.41;100638.91;5010337;28;20129;-72
2022/04/10 04:35:33;;;;;;;16.63;4.68;;;;;;;5.55;48.28;100639.78;5009645;28;20045;-72
2022/04/10 04:38:00;;;;;;;24.33;4.00;;;;;;;6.14;46.87;100646.28;5010374;28;20072;-72
2022/04/10 04:40:28;;;;;;;17.05;3.50;;;;;;;5.21;48.96;100650.59;5006384;28;20062;-72
2022/04/10 04:42:54;;;;;;;18.20;3.58;;;;;;;5.58;48.25;100647.50;5009674;28;20137;-72
2022/04/10 04:45:22;;;;;;;17.95;3.60;;;;;;;5.46;48.36;100644.06;5009404;28;20482;-72
2022/04/10 04:47:48;;;;;;;19.23;3.75;;;;;;;5.92;47.05;100647.31;5009633;28;20129;-72
2022/04/10 04:50:15;;;;;;;26.88;3.97;;;;;;;5.65;47.55;100650.50;5013189;28;20510;-72
2022/04/10 04:52:41;;;;;;;10.55;3.03;;;;;;;5.87;46.92;100652.16;5014180;28;20133;-72
2022/04/10 04:55:08;;;;;;;16.50;4.10;;;;;;;6.23;46.50;100646.34;5013894;28;20049;-73
2022/04/10 04:57:34;;;;;;;21.02;3.22;;;;;;;5.96;47.14;100654.03;5014805;28;20054;-72
2022/04/10 05:00:01;;;;;;;15.80;3.45;;;;;;;5.70;47.70;100649.16;5013810;28;20124;-72
2022/04/10 05:02:28;;;;;;;16.58;3.22;;;;;;;5.34;48.54;100654.91;5013240;28;20138;-72
2022/04/10 05:04:54;;;;;;;19.13;4.25;;;;;;;5.41;48.55;100659.56;5012959;28;20104;-72
2022/04/10 05:07:22;;;;;;;24.63;3.45;;;;;;;5.72;47.48;100657.81;5013138;28;20065;-72
2022/04/10 05:09:48;;;;;;;16.35;3.28;;;;;;;5.96;46.75;100670.88;5013113;28;20065;-72
2022/04/10 05:12:15;;;;;;;15.02;4.13;;;;;;;6.26;46.45;100676.38;5013419;28;20513;-72
2022/04/10 05:14:41;;;;;;;19.52;4.30;;;;;;;6.28;46.38;100671.75;5013616;28;20462;-72
2022/04/10 05:17:07;;;;;;;18.52;4.07;;;;;;;6.85;44.92;100683.59;5014275;28;20129;-72
2022/04/10 05:19:34;;;;;;;20.52;3.78;;;;;;;6.26;46.36;100687.03;5014133;28;20077;-72
2022/04/10 05:22:01;;;;;;;14.90;3.88;;;;;;;5.60;47.60;100690.81;5012087;28;20122;-72
2022/04/10 05:24:27;;;;;;;16.50;3.75;;;;;;;5.91;47.18;100688.22;5013085;28;20046;-72
2022/04/10 05:26:53;;;;;;;23.63;4.05;;;;;;;6.28;46.06;100696.56;5012812;28;20467;-72
2022/04/10 05:29:20;;;;;;;20.67;3.60;;;;;;;6.86;44.68;100699.47;5012922;28;20077;-73
2022/04/10 05:31:46;;;;;;;15.98;3.30;;;;;;;6.82;44.85;100710.53;5009541;28;20073;-72
2022/04/10 05:34:13;;;;;;;27.92;4.63;;;;;;;6.86;44.96;100707.44;5011390;28;20050;-72
2022/04/10 05:36:40;;;;;;;18.13;2.97;;;;;;;6.93;44.87;100713.94;5012973;28;20415;-72
2022/04/10 05:39:06;;;;;;;13.13;3.10;;;;;;;6.61;45.53;100710.63;5013287;28;20121;-72
2022/04/10 05:41:33;;;;;;;18.50;3.05;;;;;;;6.20;46.44;100705.19;5012441;28;20045;-72
2022/04/10 05:43:59;;;;;;;21.85;3.63;;;;;;;6.35;46.17;100708.38;5013442;28;20045;-72
2022/04/10 05:46:26;;;;;;;15.38;3.53;;;;;;;6.18;46.76;100716.97;5012758;28;20399;-72
2022/04/10 05:48:53;;;;;;;17.83;4.18;;;;;;;6.47;45.66;100717.16;5012936;28;20608;-72
2022/04/10 05:51:19;;;;;;;23.13;3.55;;;;;;;6.33;45.99;100726.34;5012150;28;20048;-72
2022/04/10 05:53:46;;;;;;;19.98;3.90;;;;;;;6.68;45.36;100719.75;5011345;28;20045;-72
2022/04/10 05:56:12;;;;;;;18.02;3.70;;;;;;;6.37;45.84;100727.75;5011981;28;20120;-72
2022/04/10 05:58:38;;;;;;;16.33;3.05;;;;;;;6.29;45.80;100729.38;5012386;28;20042;-72
2022/04/10 06:01:05;;;;;;;17.30;3.88;;;;;;;6.26;46.08;100729.69;5013659;28;20125;-72
2022/04/10 06:03:31;;;;;;;16.25;3.67;;;;;;;6.57;45.35;100739.34;5006946;28;20042;-72
2022/04/10 06:05:58;;;;;;;20.13;3.33;;;;;;;6.91;44.83;100739.91;5012069;28;20066;-72
2022/04/10 06:08:25;;;;;;;20.65;3.70;;;;;;;6.90;44.85;100740.03;5013241;28;20406;-74
2022/04/10 06:10:51;;;;;;;17.60;3.38;;;;;;;6.73;44.88;100738.00;5012629;28;20538;-74
2022/04/10 06:13:20;;;;;;;20.15;3.22;;;;;;;7.01;44.19;100737.25;5011095;28;20077;-74
2022/04/10 06:15:47;;;;;;;24.13;4.05;;;;;;;7.08;44.17;100742.88;5011017;28;20073;-74
2022/04/10 06:18:14;;;;;;;21.85;3.28;;;;;;;7.35;43.15;100744.91;5012145;28;20037;-74
2022/04/10 06:20:40;;;;;;;21.23;3.78;;;;;;;6.93;44.29;100740.59;5278365;22;20123;-70
2022/04/10 06:23:07;;;;;;;17.50;3.72;;;;;;;7.23;43.40;100748.69;5032884;28;20128;-70
2022/04/10 06:25:33;;;;;;;16.90;3.50;;;;;;;7.19;43.59;100745.44;5031603;28;20075;-71
2022/04/10 06:28:00;;;;;;;21.50;3.42;;;;;;;6.93;44.18;100747.75;5031633;28;20049;-71
2022/04/10 06:30:26;;;;;;;21.45;3.78;;;;;;;6.53;45.46;100748.59;5031256;28;20379;-71
2022/04/10 06:32:53;;;;;;;14.80;3.42;;;;;;;6.35;45.56;100760.84;5030943;28;20139;-71
2022/04/10 06:35:19;;;;;;;18.50;4.22;;;;;;;7.11;43.90;100756.78;5031091;28;20045;-71
2022/04/10 06:37:45;;;;;;;16.90;3.78;;;;;;;7.47;43.23;100765.16;5031604;28;20068;-71
2022/04/10 06:40:12;;;;;;;17.33;3.47;;;;;;;7.76;42.81;100769.66;5031385;28;20128;-71
2022/04/10 06:42:40;;;;;;;16.63;3.20;;;;;;;7.27;43.34;100766.09;5031993;28;20132;-71
2022/04/10 06:45:07;;;;;;;19.02;3.25;;;;;;;7.26;43.72;100773.28;5032008;28;20068;-71
2022/04/10 06:47:34;;;;;;;10.70;2.85;;;;;;;7.26;43.24;100765.25;5030418;28;20167;-71
2022/04/10 06:50:00;;;;;;;17.15;3.55;;;;;;;7.93;42.00;100768.13;5032430;28;20059;-71
2022/04/10 06:52:27;;;;;;;19.35;3.05;;;;;;;8.07;41.60;100778.38;5036670;28;20133;-71
2022/04/10 06:54:53;;;;;;;18.98;3.83;;;;;;;7.86;41.83;100770.53;5031421;28;20107;-71
2022/04/10 06:57:20;;;;;;;27.40;3.97;;;;;;;6.70;44.10;100779.97;5030904;28;20424;-70
2022/04/10 06:59:47;;;;;;;12.20;4.65;;;;;;;7.36;42.98;100783.94;5030896;28;20533;-70
2022/04/10 07:02:14;;;;;;;26.70;4.95;;;;;;;7.15;43.63;100776.91;5030904;28;20064;-70
2022/04/10 07:04:40;;;;;;;25.58;4.93;;;;;;;7.07;43.57;100784.72;5030621;28;20041;-70
2022/04/10 07:07:07;;;;;;;16.50;3.33;;;;;;;7.25;42.86;100774.22;5032182;28;20084;-70
2022/04/10 07:09:33;;;;;;;23.55;3.55;;;;;;;6.90;43.69;100782.69;5030310;28;20041;-70
2022/04/10 07:12:00;;;;;;;24.42;3.35;;;;;;;6.82;43.82;100786.03;5008303;28;20236;-70
2022/04/10 07:14:26;;;;;;;15.00;3.45;;;;;;;7.56;42.34;100780.31;5009970;28;20104;-70
2022/04/10 07:16:53;;;;;;;12.68;2.90;;;;;;;7.76;41.90;100791.84;5011143;28;20076;-70
2022/04/10 07:19:19;;;;;;;18.55;3.30;;;;;;;7.67;42.13;100787.34;5011212;28;20068;-70
2022/04/10 07:24:31;;;;;;;18.85;3.40;;;;;;;8.34;40.67;100799.03;5010369;28;20058;-71
2022/04/10 07:26:57;;;;;;;22.58;3.25;;;;;;;8.09;40.93;100803.16;5009992;28;20259;-70
2022/04/10 07:29:24;;;;;;;18.98;3.63;;;;;;;7.98;41.35;100793.41;5011063;28;20097;-70
2022/04/10 07:31:50;;;;;;;21.95;4.15;;;;;;;7.48;41.92;100809.53;5008808;28;20124;-70
2022/04/10 07:34:17;;;;;;;16.65;3.35;;;;;;;7.74;41.77;100806.31;5013706;28;20071;-70
2022/04/10 07:36:43;;;;;;;16.90;3.25;;;;;;;8.22;40.93;100814.34;5013026;28;20045;-71
2022/04/10 07:39:10;;;;;;;24.45;3.65;;;;;;;7.94;41.49;100807.22;5011122;28;20129;-71
2022/04/10 07:41:36;;;;;;;19.02;3.40;;;;;;;8.27;41.00;100813.94;5010671;28;20044;-70
2022/04/10 07:44:03;;;;;;;15.52;3.20;;;;;;;8.06;41.12;100811.44;5011923;28;20613;-70
2022/04/10 07:49:15;;;;;;;19.55;3.22;;;;;;;7.90;41.58;100812.84;5010578;28;20460;-71
2022/04/10 07:51:41;;;;;;;23.17;3.17;;;;;;;8.09;41.02;100813.84;5010869;28;20045;-71
2022/04/10 07:54:08;;;;;;;19.90;2.97;;;;;;;8.18;40.70;100828.16;5014663;28;20128;-71
2022/04/10 07:56:34;;;;;;;18.55;4.20;;;;;;;8.13;40.69;100825.91;5010292;28;20458;-71
2022/04/10 07:59:01;;;;;;;17.73;3.45;;;;;;;7.36;42.64;100838.19;5010870;28;20097;-71
2022/04/10 08:01:27;;;;;;;17.15;3.92;;;;;;;7.95;41.52;100833.81;5011031;28;20128;-71
2022/04/10 08:03:54;;;;;;;22.50;3.30;;;;;;;8.10;41.20;100843.06;5010662;28;20452;-71
2022/04/10 08:06:20;;;;;;;19.02;3.58;;;;;;;7.73;41.76;100842.03;5010953;28;20070;-71
2022/04/10 08:08:47;;;;;;;26.20;3.83;;;;;;;7.48;42.74;100843.41;5011268;28;20492;-71
2022/04/10 08:11:13;;;;;;;18.48;4.00;;;;;;;7.52;42.90;100847.47;5006776;28;20124;-71
2022/04/10 08:13:40;;;;;;;22.88;3.50;;;;;;;7.74;41.78;100849.06;5011264;28;20553;-71
2022/04/10 08:16:06;;;;;;;13.82;3.03;;;;;;;8.11;40.99;100852.75;5010095;28;20471;-71
2022/04/10 08:18:33;;;;;;;15.90;3.83;;;;;;;8.24;40.46;100851.66;5011167;28;20401;-71
2022/04/10 08:21:00;;;;;;;20.80;3.38;;;;;;;8.24;40.33;100857.00;5011157;28;20088;-70
2022/04/10 08:23:26;;;;;;;22.10;3.47;;;;;;;9.18;38.85;100854.34;5011381;28;20443;-71
2022/04/10 08:25:53;;;;;;;18.63;2.75;;;;;;;10.46;36.63;100848.81;5013245;28;20128;-71
2022/04/10 08:28:19;;;;;;;19.00;3.83;;;;;;;10.04;37.23;100854.84;5014585;28;20129;-71
2022/04/10 08:30:46;;;;;;;18.63;3.42;;;;;;;10.26;36.51;100856.19;5005175;28;20042;-71
2022/04/10 08:33:12;;;;;;;20.23;3.60;;;;;;;10.62;36.16;100858.88;5010504;28;20046;-71
2022/04/10 08:35:39;;;;;;;19.15;3.53;;;;;;;9.84;37.20;100851.44;5019986;28;20458;-71
2022/04/10 08:38:05;;;;;;;17.42;4.00;;;;;;;10.09;36.27;100873.13;5014535;28;20126;-71
2022/04/10 08:40:32;;;;;;;19.90;4.00;;;;;;;9.52;37.52;100868.03;5013928;28;20125;-71
2022/04/10 08:43:02;;;;;;;17.15;3.50;;;;;;;9.46;36.98;100872.13;5013797;28;20137;-71
2022/04/10 08:45:29;;;;;;;15.45;3.15;;;;;;;9.73;36.91;100876.63;5009988;28;20133;-71
2022/04/10 08:47:56;;;;;;;19.67;3.40;;;;;;;10.40;35.66;100862.84;5012896;28;20399;-71
2022/04/10 08:50:28;;;;;;;19.52;4.00;;;;;;;9.71;36.65;100867.06;5013598;28;20073;-71
2022/04/10 08:52:57;;;;;;;16.40;3.30;;;;;;;9.77;36.97;100863.78;5010151;28;20065;-71
2022/04/10 08:55:26;;;;;;;20.52;4.07;;;;;;;10.75;35.19;100864.63;5014119;28;20162;-71
2022/04/10 08:57:53;;;;;;;21.05;4.15;;;;;;;10.34;35.73;100863.44;5013790;28;20046;-71
2022/04/10 09:00:20;;;;;;;22.63;6.03;;;;;;;10.45;35.86;100865.91;5012481;28;20062;-72
2022/04/10 09:02:49;;;;;;;23.17;7.47;;;;;;;9.59;37.71;100870.94;5014450;28;20046;-71
2022/04/10 09:05:20;;;;;;;17.05;4.32;;;;;;;8.63;40.42;100875.66;5013804;28;20084;-71
2022/04/10 09:08:10;;;;;;;20.27;3.90;;;;;;;8.23;40.94;100884.72;5013378;28;20129;-72
2022/04/10 09:11:01;;;;;;;25.83;5.30;;;;;;;8.56;40.23;100886.06;5012053;28;20049;-71
2022/04/10 09:13:33;;;;;;;22.27;3.25;;;;;;;9.09;38.81;100880.16;5013465;28;20054;-71
2022/04/10 09:16:12;;;;;;;19.25;4.60;;;;;;;9.87;38.11;100891.34;5013269;28;20053;-71
2022/04/10 09:18:46;;;;;;;25.83;4.38;;;;;;;8.63;39.93;100878.31;5012423;28;20052;-71
2022/04/10 09:21:14;;;;;;;20.17;3.80;;;;;;;9.23;38.65;100884.19;5012923;28;20494;-71
2022/04/10 09:23:40;;;;;;;15.15;3.97;;;;;;;9.44;38.30;100892.88;5013539;28;20121;-71
2022/04/10 09:26:07;;;;;;;17.13;3.40;;;;;;;9.41;38.29;100893.19;5014448;28;20402;-71
2022/04/10 09:28:45;;;;;;;22.83;3.90;;;;;;;9.59;38.04;100887.84;5014061;28;20417;-71
2022/04/10 09:31:29;;;;;;;20.40;3.25;;;;;;;9.33;39.00;100885.03;5014118;28;20061;-71
2022/04/10 09:33:57;;;;;;;21.52;3.38;;;;;;;9.56;38.24;100894.34;5012719;28;20042;-71
2022/04/10 09:36:37;;;;;;;20.45;3.95;;;;;;;8.07;41.27;100899.47;5005053;28;20551;-71
2022/04/10 09:39:06;;;;;;;14.05;2.88;;;;;;;8.42;41.81;100911.41;5025455;28;20066;-71
2022/04/10 09:41:34;;;;;;;18.20;2.97;;;;;;;8.52;42.94;100920.28;5013460;28;20469;-71
2022/04/10 09:44:11;;;;;;;18.40;3.83;;;;;;;7.98;44.60;100912.81;5012921;28;20163;-73
2022/04/10 09:46:39;;;;;;;9.48;2.63;;;;;;;8.12;44.63;100907.06;5013303;28;20068;-72
2022/04/10 09:49:11;;;;;;;15.48;3.10;;;;;;;8.65;44.03;100906.63;5011708;28;20078;-72
2022/04/10 09:51:57;;;;;;;11.35;3.50;;;;;;;9.34;43.48;100902.78;5013237;28;20092;-71
2022/04/10 09:54:24;;;;;;;20.70;4.80;;;;;;;10.43;42.35;100905.44;5012937;28;20128;-72
2022/04/10 09:56:53;;;;;;;20.48;4.20;;;;;;;10.65;41.67;100893.41;5012427;28;20045;-71
2022/04/10 09:59:26;;;;;;;16.73;4.75;;;;;;;11.14;41.08;100891.88;5012883;28;20557;-72
2022/04/10 10:01:54;;;;;;;20.70;4.15;;;;;;;11.70;39.33;100889.63;5012601;28;20165;-71
2022/04/10 10:04:22;;;;;;;14.80;4.00;;;;;;;13.37;36.66;100890.06;5012998;28;20516;-72
2022/04/10 10:06:49;;;;;;;13.35;3.45;;;;;;;13.66;35.28;100889.44;5012230;28;20459;-72
2022/04/10 10:09:16;;;;;;;21.05;3.83;;;;;;;13.99;34.11;100883.88;5012826;28;20129;-72
2022/04/10 10:11:43;;;;;;;15.68;3.20;;;;;;;13.96;33.21;100874.28;5013663;28;20478;-72
2022/04/10 10:14:10;;;;;;;16.98;3.22;;;;;;;12.21;32.93;100876.97;5017045;28;20072;-72
2022/04/10 10:16:37;;;;;;;15.82;3.08;;;;;;;13.37;31.57;100881.16;5012991;28;20072;-72
2022/04/10 10:19:05;;;;;;;15.35;3.42;;;;;;;12.36;31.87;100869.06;5011370;28;20041;-72
2022/04/10 10:21:31;;;;;;;11.20;3.10;;;;;;;12.51;32.20;100879.97;5012200;28;20136;-72
2022/04/10 10:23:59;;;;;;;12.60;3.20;;;;;;;11.76;31.90;100872.84;5011816;28;20041;-72
2022/04/10 10:26:40;;;;;;;19.20;4.50;;;;;;;11.21;33.00;100879.50;5012338;28;20487;-71
2022/04/10 10:29:24;;;;;;;19.47;3.77;;;;;;;11.41;32.23;100885.47;5011583;28;20487;-72
2022/04/10 10:31:54;;;;;;;17.70;3.25;;;;;;;11.55;32.38;100875.97;5011406;28;20352;-72
2022/04/10 10:34:23;;;;;;;15.75;3.22;;;;;;;10.80;32.80;100888.31;5012420;28;20459;-72
2022/04/10 10:36:53;;;;;;;11.95;3.00;;;;;;;11.35;32.43;100880.75;5011134;28;20124;-71
2022/04/10 10:39:21;;;;;;;8.80;2.63;;;;;;;10.85;33.13;100884.16;5012633;28;20048;-72
2022/04/10 10:41:50;;;;;;;16.13;3.13;;;;;;;11.22;33.31;100886.53;5012602;28;20046;-72
2022/04/10 10:44:41;;;;;;;11.00;2.85;;;;;;;10.84;34.18;100878.97;5011409;28;20077;-70
2022/04/10 10:47:25;;;;;;;13.63;3.03;;;;;;;11.45;33.71;100881.47;5011143;28;20076;-72
2022/04/10 10:49:54;;;;;;;10.50;2.47;;;;;;;12.76;32.40;100878.94;5006375;28;20067;-71
2022/04/10 10:52:21;;;;;;;20.23;3.50;;;;;;;13.11;31.39;100880.41;5022645;28;20080;-72
2022/04/10 10:54:56;;;;;;;16.10;3.47;;;;;;;12.70;31.28;100876.94;5005619;28;20046;-72
2022/04/10 10:57:29;;;;;;;12.38;3.35;;;;;;;12.15;32.02;100872.25;5012083;28;20046;-73
2022/04/10 11:00:16;;;;;;;15.85;3.60;;;;;;;12.56;31.87;100866.84;5010823;28;20070;-73
2022/04/10 11:02:54;;;;;;;12.05;3.00;;;;;;;12.86;31.61;100874.22;5011099;28;20046;-73
2022/04/10 11:05:24;;;;;;;13.95;3.33;;;;;;;12.29;32.22;100876.94;5011950;28;20052;-73
2022/04/10 11:07:58;;;;;;;16.10;3.63;;;;;;;11.74;32.76;100879.38;5011180;28;20108;-72
2022/04/10 11:10:28;;;;;;;15.13;2.80;;;;;;;11.65;32.52;100879.31;5010914;28;20073;-72
2022/04/10 11:13:04;;;;;;;16.25;3.10;;;;;;;11.80;32.61;100884.13;5012141;28;20088;-72
2022/04/10 11:15:34;;;;;;;15.73;3.38;;;;;;;11.90;32.70;100888.34;5009933;28;20099;-72
2022/04/10 11:18:43;;;;;;;14.20;2.90;;;;;;;10.86;34.03;100875.13;5011140;28;20042;-72
2022/04/10 11:21:14;;;;;;;17.98;3.63;;;;;;;9.68;36.00;100888.78;4960526;28;20140;-73
2022/04/10 11:23:52;;;;;;;19.92;4.13;;;;;;;10.40;35.14;100885.13;4970455;28;20058;-72
2022/04/10 11:26:22;;;;;;;14.18;3.00;;;;;;;11.85;32.77;100881.75;4970860;28;20063;-72
2022/04/10 11:29:01;;;;;;;14.55;2.97;;;;;;;12.56;31.44;100891.91;4970926;28;20047;-73
2022/04/10 11:31:34;;;;;;;14.48;3.08;;;;;;;13.37;29.80;100894.63;4969211;28;20141;-73
2022/04/10 11:34:12;;;;;;;10.45;2.50;;;;;;;11.67;32.45;100884.56;4970151;28;20367;-73